createdAt,value
2023-01-12T00:02:22.861Z,99775.59
2023-01-12T00:04:49.467Z,99794.13
2023-01-12T00:07:17.714Z,99776.63
2023-01-12T00:09:44.284Z,99782.59
2023-01-12T00:12:23.645Z,99773.50
2023-01-12T00:15:07.195Z,99777.56
2023-01-12T00:17:49.302Z,99777.91
2023-01-12T00:20:26.054Z,99778.06
2023-01-12T00:23:03.775Z,99770.25
2023-01-12T00:25:57.590Z,99770.00
2023-01-12T00:31:50.039Z,99765.38
2023-01-12T00:34:29.837Z,99768.41
2023-01-12T00:37:09.475Z,99761.19
2023-01-12T00:39:53.301Z,99755.28
2023-01-12T00:42:55.126Z,99765.81
2023-01-12T00:45:26.263Z,99753.66
2023-01-12T00:47:57.371Z,99761.28
2023-01-12T00:50:31.759Z,99772.69
2023-01-12T00:52:59.363Z,99751.78
2023-01-12T00:55:36.936Z,99758.91
2023-01-12T00:58:04.544Z,99746.47
2023-01-12T01:00:40.580Z,99748.44
2023-01-12T01:03:17.153Z,99753.56
2023-01-12T01:05:44.458Z,99752.97
2023-01-12T01:08:20.985Z,99763.72
2023-01-12T01:10:50.862Z,99761.50
2023-01-12T01:13:25.842Z,99757.50
2023-01-12T01:16:05.787Z,99760.94
2023-01-12T01:18:38.408Z,99761.22
2023-01-12T01:21:08.927Z,99755.28
2023-01-12T01:23:39.696Z,99757.09
2023-01-12T01:26:15.450Z,99744.66
2023-01-12T01:29:00.189Z,99758.78
2023-01-12T01:31:35.654Z,99759.47
2023-01-12T01:34:16.039Z,99743.75
2023-01-12T01:36:49.980Z,99753.84
2023-01-12T01:39:24.741Z,99755.38
2023-01-12T01:42:03.981Z,99757.59
2023-01-12T01:44:39.027Z,99750.66
2023-01-12T01:47:34.180Z,99745.50
2023-01-12T01:53:50.835Z,99743.09
2023-01-12T01:57:15.369Z,99742.69
2023-01-12T02:03:57.042Z,99737.56
2023-01-12T02:10:31.569Z,99734.84
2023-01-12T02:13:56.272Z,99733.16
2023-01-12T02:21:10.404Z,99719.88
2023-01-12T02:24:30.819Z,99720.03
2023-01-12T02:27:34.844Z,99730.63
2023-01-12T02:30:43.718Z,99722.63
2023-01-12T02:33:47.403Z,99733.22
2023-01-12T02:36:53.765Z,99725.16
2023-01-12T02:43:27.664Z,99713.56
2023-01-12T02:46:18.947Z,99707.28
2023-01-12T02:52:25.525Z,99710.00
2023-01-12T02:55:07.595Z,99706.97
2023-01-12T02:57:48.424Z,99691.94
2023-01-12T03:00:22.455Z,99682.22
2023-01-12T03:03:13.878Z,99699.31
2023-01-12T03:06:28.038Z,99694.28
2023-01-12T03:08:58.879Z,99707.78
2023-01-12T03:11:46.451Z,99696.59
2023-01-12T03:14:49.135Z,99697.06
2023-01-12T03:18:11.198Z,99700.13
2023-01-12T03:21:10.677Z,99699.47
2023-01-12T03:23:52.061Z,99692.25
2023-01-12T03:26:26.668Z,99689.81
2023-01-12T03:29:29.862Z,99689.16
2023-01-12T03:32:33.895Z,99691.44
2023-01-12T03:35:05.131Z,99678.94
2023-01-12T03:37:52.284Z,99682.25
2023-01-12T03:40:46.823Z,99673.19
2023-01-12T03:43:37.360Z,99671.22
2023-01-12T03:47:04.929Z,99669.56
2023-01-12T03:54:05.965Z,99667.34
2023-01-12T03:56:55.956Z,99664.09
2023-01-12T03:59:45.549Z,99661.94
2023-01-12T04:02:26.008Z,99663.56
2023-01-12T04:05:14.169Z,99667.91
2023-01-12T04:08:00.963Z,99655.47
2023-01-12T04:13:34.923Z,99665.25
2023-01-12T04:16:14.876Z,99649.50
2023-01-12T04:19:08.656Z,99647.47
2023-01-12T04:22:02.883Z,99640.91
2023-01-12T04:24:50.900Z,99636.59
2023-01-12T04:27:48.077Z,99640.13
2023-01-12T04:30:34.552Z,99629.47
2023-01-12T04:47:03.961Z,99613.38
2023-01-12T04:49:49.943Z,99603.25
2023-01-12T04:52:25.826Z,99601.44
2023-01-12T04:55:27.180Z,99599.25
2023-01-12T05:01:39.500Z,99586.09
2023-01-12T05:07:08.737Z,99578.03
2023-01-12T05:10:01.561Z,99571.03
2023-01-12T05:12:45.107Z,99575.72
2023-01-12T05:15:21.100Z,99555.59
2023-01-12T05:18:09.364Z,99554.00
2023-01-12T05:20:52.013Z,99548.78
2023-01-12T05:23:48.368Z,99535.03
2023-01-12T05:26:56.531Z,99534.72
2023-01-12T05:29:42.070Z,99531.47
2023-01-12T05:32:31.411Z,99535.75
2023-01-12T05:35:22.251Z,99524.84
2023-01-12T05:38:22.611Z,99508.56
2023-01-12T05:41:33.224Z,99503.34
2023-01-12T05:44:12.819Z,99511.59
2023-01-12T05:46:58.074Z,99500.94
2023-01-12T05:49:42.512Z,99497.81
2023-01-12T05:52:49.407Z,99485.22
2023-01-12T05:55:38.576Z,99480.59
2023-01-12T06:01:51.505Z,99480.22
2023-01-12T06:04:39.321Z,99471.78
2023-01-12T06:08:05.374Z,99479.56
2023-01-12T06:11:03.705Z,99479.75
2023-01-12T06:14:07.861Z,99464.84
2023-01-12T06:16:52.877Z,99455.75
2023-01-12T06:19:48.933Z,99459.44
2023-01-12T06:22:38.575Z,99443.09
2023-01-12T06:25:50.323Z,99453.50
2023-01-12T06:31:33.602Z,99435.31
2023-01-12T06:34:27.475Z,99435.56
2023-01-12T06:40:40.574Z,99412.72
2023-01-12T06:44:06.154Z,99405.75
2023-01-12T06:47:08.132Z,99408.53
2023-01-12T06:49:43.562Z,99401.28
2023-01-12T06:52:34.442Z,99401.88
2023-01-12T06:58:16.874Z,99390.16
2023-01-12T07:01:12.473Z,99382.94
2023-01-12T07:03:58.667Z,99377.09
2023-01-12T07:07:05.114Z,99375.47
2023-01-12T07:09:49.520Z,99370.78
2023-01-12T07:12:30.913Z,99367.94
2023-01-12T07:15:14.436Z,99357.69
2023-01-12T07:18:11.255Z,99359.53
2023-01-12T07:20:47.233Z,99351.75
2023-01-12T07:23:33.444Z,99355.41
2023-01-12T07:26:08.906Z,99331.41
2023-01-12T07:28:49.599Z,99346.78
2023-01-12T07:31:22.095Z,99325.38
2023-01-12T07:33:57.580Z,99319.19
2023-01-12T07:36:28.450Z,99314.41
2023-01-12T07:38:59.254Z,99319.75
2023-01-12T07:41:44.930Z,99309.94
2023-01-12T07:44:13.203Z,99302.91
2023-01-12T07:46:43.054Z,99298.56
2023-01-12T07:49:12.928Z,99286.75
2023-01-12T07:51:40.562Z,99293.75
2023-01-12T07:54:08.075Z,99295.38
2023-01-12T07:56:34.948Z,99287.69
2023-01-12T07:59:02.191Z,99278.28
2023-01-12T08:01:32.433Z,99265.75
2023-01-12T08:04:01.788Z,99252.34
2023-01-12T08:06:34.108Z,99241.19
2023-01-12T08:09:07.172Z,99249.50
2023-01-12T08:11:39.394Z,99243.78
2023-01-12T08:14:14.485Z,99252.03
2023-01-12T08:16:48.980Z,99244.44
2023-01-12T08:19:25.701Z,99254.47
2023-01-12T08:21:59.997Z,99261.94
2023-01-12T08:24:43.300Z,99259.13
2023-01-12T08:27:13.032Z,99257.50
2023-01-12T08:29:48.128Z,99252.50
2023-01-12T08:32:21.669Z,99250.94
2023-01-12T08:34:56.136Z,99239.50
2023-01-12T08:37:29.221Z,99242.50
2023-01-12T08:40:02.032Z,99253.13
2023-01-12T08:42:48.344Z,99250.03
2023-01-12T08:45:50.607Z,99244.22
2023-01-12T08:48:26.263Z,99235.31
2023-01-12T08:51:04.175Z,99245.63
2023-01-12T08:53:44.479Z,99250.75
2023-01-12T08:56:29.107Z,99257.47
2023-01-12T08:59:07.375Z,99242.63
2023-01-12T09:01:51.466Z,99233.34
2023-01-12T09:04:29.145Z,99232.13
2023-01-12T09:07:14.850Z,99238.16
2023-01-12T09:09:54.674Z,99237.78
2023-01-12T09:12:40.683Z,99242.44
2023-01-12T09:15:19.501Z,99243.44
2023-01-12T09:18:07.407Z,99257.59
2023-01-12T09:20:56.734Z,99252.75
2023-01-12T09:23:44.265Z,99257.47
2023-01-12T09:26:30.285Z,99272.63
2023-01-12T09:29:16.860Z,99269.38
2023-01-12T09:31:59.082Z,99265.06
2023-01-12T09:34:47.867Z,99259.47
2023-01-12T09:37:24.178Z,99277.97
2023-01-12T09:40:03.654Z,99272.69
2023-01-12T09:47:10.127Z,99273.94
2023-01-12T09:50:08.013Z,99263.53
2023-01-12T09:53:06.869Z,99267.25
2023-01-12T09:55:54.481Z,99275.66
2023-01-12T09:59:12.241Z,99270.38
2023-01-12T10:01:47.326Z,99267.22
2023-01-12T10:04:26.481Z,99272.69
2023-01-12T10:07:10.233Z,99281.94
2023-01-12T10:09:54.445Z,99288.06
2023-01-12T10:12:37.407Z,99295.94
2023-01-12T10:16:07.454Z,99282.34
2023-01-12T10:18:50.565Z,99279.06
2023-01-12T10:21:26.656Z,99285.44
2023-01-12T10:24:08.219Z,99290.50
2023-01-12T10:26:44.772Z,99278.38
2023-01-12T10:29:21.891Z,99273.50
2023-01-12T10:32:04.600Z,99280.41
2023-01-12T10:34:55.646Z,99271.91
2023-01-12T10:37:36.198Z,99264.91
2023-01-12T10:40:09.418Z,99281.59
2023-01-12T10:43:19.588Z,99281.97
2023-01-12T10:46:16.178Z,99285.28
2023-01-12T10:49:00.649Z,99287.44
2023-01-12T10:51:45.369Z,99283.22
2023-01-12T10:54:27.167Z,99275.44
2023-01-12T10:57:21.811Z,99287.44
2023-01-12T11:00:03.101Z,99291.00
2023-01-12T11:02:54.932Z,99279.03
2023-01-12T11:05:38.218Z,99286.94
2023-01-12T11:08:39.244Z,99276.22
2023-01-12T11:11:30.800Z,99268.56
2023-01-12T11:14:28.624Z,99273.22
2023-01-12T11:17:26.579Z,99264.41
2023-01-12T11:20:20.773Z,99268.28
2023-01-12T11:23:07.403Z,99274.41
2023-01-12T11:25:47.841Z,99285.16
2023-01-12T11:28:48.199Z,99271.00
2023-01-12T11:31:37.956Z,99282.47
2023-01-12T11:34:44.893Z,99272.19
2023-01-12T11:38:17.128Z,99283.81
2023-01-12T11:40:57.739Z,99276.59
2023-01-12T11:44:08.861Z,99275.13
2023-01-12T11:47:03.463Z,99282.28
2023-01-12T11:49:59.746Z,99286.22
2023-01-12T11:52:33.122Z,99287.44
2023-01-12T11:55:19.380Z,99272.16
2023-01-12T11:58:15.205Z,99281.16
2023-01-12T12:01:25.380Z,99279.13
2023-01-12T12:04:17.681Z,99269.69
2023-01-12T12:07:06.528Z,99284.47
2023-01-12T12:09:58.971Z,99280.50
2023-01-12T12:12:52.413Z,99278.47
2023-01-12T12:15:49.166Z,99284.94
2023-01-12T12:18:47.673Z,99269.97
2023-01-12T12:21:44.532Z,99283.72
2023-01-12T12:25:17.556Z,99271.63
2023-01-12T12:28:15.683Z,99285.44
2023-01-12T12:31:26.797Z,99291.06
2023-01-12T12:34:27.957Z,99289.75
2023-01-12T12:37:27.070Z,99294.50
2023-01-12T12:40:56.960Z,99279.44
2023-01-12T12:43:56.979Z,99290.78
2023-01-12T12:46:58.542Z,99284.34
2023-01-12T12:49:40.441Z,99292.00
2023-01-12T12:52:21.563Z,99295.13
2023-01-12T12:55:01.879Z,99298.38
2023-01-12T12:57:34.837Z,99306.06
2023-01-12T13:00:05.485Z,99293.53
2023-01-12T13:03:01.569Z,99287.50
2023-01-12T13:06:11.761Z,99301.38
2023-01-12T13:08:41.415Z,99297.16
2023-01-12T13:11:08.408Z,99303.38
2023-01-12T13:13:57.924Z,99298.88
2023-01-12T13:16:26.500Z,99301.47
2023-01-12T13:18:53.385Z,99305.09
2023-01-12T13:21:26.787Z,99299.88
2023-01-12T13:23:55.150Z,99304.91
2023-01-12T13:26:36.696Z,99317.16
2023-01-12T13:29:24.190Z,99314.22
2023-01-12T13:31:59.772Z,99306.72
2023-01-12T13:34:42.387Z,99318.09
2023-01-12T13:37:38.836Z,99310.09
2023-01-12T13:40:08.676Z,99324.00
2023-01-12T13:42:57.456Z,99321.13
2023-01-12T13:45:28.570Z,99329.41
2023-01-12T13:47:59.599Z,99338.78
2023-01-12T13:50:31.654Z,99327.34
2023-01-12T13:53:06.134Z,99326.16
2023-01-12T13:55:38.320Z,99323.94
2023-01-12T13:58:20.544Z,99326.66
2023-01-12T14:01:17.212Z,99316.78
2023-01-12T14:04:16.311Z,99314.00
2023-01-12T14:07:01.751Z,99323.31
2023-01-12T14:09:47.146Z,99337.00
2023-01-12T14:13:00.201Z,99335.34
2023-01-12T14:15:46.448Z,99333.28
2023-01-12T14:18:23.183Z,99337.97
2023-01-12T14:21:06.479Z,99350.91
2023-01-12T14:23:51.957Z,99332.50
2023-01-12T14:26:32.320Z,99347.41
2023-01-12T14:29:02.696Z,99346.88
2023-01-12T14:31:48.642Z,99342.38
2023-01-12T14:34:33.454Z,99345.25
2023-01-12T14:37:23.451Z,99346.09
2023-01-12T14:39:56.618Z,99342.84
2023-01-12T14:42:50.194Z,99336.38
2023-01-12T14:45:52.405Z,99342.63
2023-01-12T14:48:32.784Z,99339.75
2023-01-12T14:51:29.290Z,99332.09
2023-01-12T14:54:12.167Z,99337.06
2023-01-12T14:59:50.207Z,99329.09
2023-01-12T15:05:42.210Z,99329.22
2023-01-12T15:08:19.319Z,99335.31
2023-01-12T15:10:58.610Z,99347.50
2023-01-12T15:13:38.849Z,99345.50
2023-01-12T15:16:33.867Z,99336.63
2023-01-12T15:19:26.939Z,99336.78
2023-01-12T15:22:24.360Z,99321.06
2023-01-12T15:25:23.531Z,99330.72
2023-01-12T15:31:33.190Z,99340.59
2023-01-12T15:34:16.819Z,99327.94
2023-01-12T15:37:00.978Z,99340.59
2023-01-12T15:39:41.472Z,99331.56
2023-01-12T15:42:30.364Z,99344.16
2023-01-12T15:48:41.837Z,99337.00
2023-01-12T15:51:44.634Z,99333.56
2023-01-12T15:54:26.412Z,99331.28
2023-01-12T15:56:59.828Z,99339.00
2023-01-12T15:59:31.649Z,99333.09
2023-01-12T16:02:21.691Z,99325.44
2023-01-12T16:04:54.994Z,99318.66
2023-01-12T16:07:34.735Z,99319.31
2023-01-12T16:10:08.976Z,99310.06
2023-01-12T16:12:50.822Z,99300.69
2023-01-12T16:15:33.367Z,99310.13
2023-01-12T16:18:03.290Z,99311.22
2023-01-12T16:20:44.588Z,99308.59
2023-01-12T16:23:20.494Z,99312.44
2023-01-12T16:26:06.863Z,99304.97
2023-01-12T16:28:46.427Z,99308.22
2023-01-12T16:31:40.408Z,99304.44
2023-01-12T16:34:20.218Z,99309.38
2023-01-12T16:37:00.549Z,99303.38
2023-01-12T16:39:37.263Z,99294.16
2023-01-12T16:42:16.194Z,99298.91
2023-01-12T16:44:55.583Z,99298.47
2023-01-12T16:47:26.599Z,99293.28
2023-01-12T16:50:00.446Z,99289.31
2023-01-12T16:52:44.903Z,99295.31
2023-01-12T16:55:33.775Z,99284.03
2023-01-12T16:58:15.534Z,99282.38
2023-01-12T17:00:49.943Z,99280.84
2023-01-12T17:03:25.136Z,99282.72
2023-01-12T17:06:04.563Z,99284.41
2023-01-12T17:08:44.793Z,99284.28
2023-01-12T17:11:28.106Z,99272.66
2023-01-12T17:14:29.999Z,99269.06
2023-01-12T17:17:05.135Z,99277.09
2023-01-12T17:19:41.283Z,99271.88
2023-01-12T17:22:13.418Z,99274.13
2023-01-12T17:24:41.687Z,99278.22
2023-01-12T17:27:12.434Z,99269.44
2023-01-12T17:29:45.304Z,99276.06
2023-01-12T17:32:16.236Z,99267.53
2023-01-12T17:34:48.598Z,99257.47
2023-01-12T17:37:16.926Z,99259.84
2023-01-12T17:39:44.368Z,99250.59
2023-01-12T17:42:35.713Z,99257.81
2023-01-12T17:45:03.860Z,99254.78
2023-01-12T17:47:33.614Z,99251.81
2023-01-12T17:50:02.276Z,99248.94
2023-01-12T17:52:34.698Z,99258.13
2023-01-12T17:55:05.910Z,99253.06
2023-01-12T17:57:33.154Z,99238.03
2023-01-12T18:00:02.976Z,99245.56
2023-01-12T18:02:39.598Z,99242.34
2023-01-12T18:05:06.775Z,99243.03
2023-01-12T18:07:35.848Z,99243.78
2023-01-12T18:10:02.709Z,99237.38
2023-01-12T18:12:30.230Z,99252.50
2023-01-12T18:14:57.304Z,99254.13
2023-01-12T18:17:29.864Z,99250.31
2023-01-12T18:19:59.312Z,99252.25
2023-01-12T18:22:26.992Z,99253.50
2023-01-12T18:24:54.216Z,99244.94
2023-01-12T18:27:21.861Z,99253.94
2023-01-12T18:29:49.543Z,99248.25
2023-01-12T18:32:17.230Z,99250.66
2023-01-12T18:34:47.404Z,99239.81
2023-01-12T18:37:15.153Z,99248.97
2023-01-12T18:39:44.379Z,99248.47
2023-01-12T18:42:30.371Z,99240.16
2023-01-12T18:45:02.236Z,99231.84
2023-01-12T18:47:48.497Z,99234.28
2023-01-12T18:50:34.786Z,99227.22
2023-01-12T18:53:20.961Z,99230.50
2023-01-12T18:55:48.317Z,99212.78
2023-01-12T18:58:15.368Z,99208.03
2023-01-12T19:00:42.266Z,99212.75
2023-01-12T19:03:09.340Z,99217.47
2023-01-12T19:05:53.678Z,99225.00
2023-01-12T19:08:40.060Z,99217.72
2023-01-12T19:11:09.121Z,99223.13
2023-01-12T19:13:54.232Z,99211.78
2023-01-12T19:16:40.181Z,99213.78
2023-01-12T19:19:08.123Z,99216.75
2023-01-12T19:21:54.391Z,99197.63
2023-01-12T19:24:39.976Z,99204.38
2023-01-12T19:27:25.550Z,99207.44
2023-01-12T19:29:52.538Z,99207.09
2023-01-12T19:32:20.201Z,99207.88
2023-01-12T19:34:47.423Z,99204.34
2023-01-12T19:37:15.700Z,99196.25
2023-01-12T19:39:59.631Z,99206.66
2023-01-12T19:42:51.092Z,99207.53
2023-01-12T19:45:18.505Z,99210.31
2023-01-12T19:47:45.539Z,99207.53
2023-01-12T19:50:14.296Z,99204.59
2023-01-12T19:52:43.459Z,99214.88
2023-01-12T19:55:13.086Z,99223.09
2023-01-12T19:57:41.431Z,99213.09
2023-01-12T20:00:16.510Z,99218.06
2023-01-12T20:02:46.522Z,99205.44
2023-01-12T20:05:17.445Z,99215.06
2023-01-12T20:07:48.318Z,99209.63
2023-01-12T20:10:18.450Z,99213.09
2023-01-12T20:12:45.421Z,99225.31
2023-01-12T20:15:17.064Z,99213.59
2023-01-12T20:17:46.056Z,99221.38
2023-01-12T20:20:13.341Z,99218.44
2023-01-12T20:22:42.149Z,99224.94
2023-01-12T20:25:09.811Z,99224.41
2023-01-12T20:27:41.130Z,99225.53
2023-01-12T20:30:14.217Z,99221.66
2023-01-12T20:32:46.628Z,99225.19
2023-01-12T20:35:17.828Z,99229.38
2023-01-12T20:37:45.460Z,99221.78
2023-01-12T20:40:14.107Z,99243.88
2023-01-12T20:43:02.859Z,99235.50
2023-01-12T20:45:35.683Z,99227.44
2023-01-12T20:48:19.093Z,99233.84
2023-01-12T20:50:51.578Z,99230.59
2023-01-12T20:53:35.399Z,99228.69
2023-01-12T20:56:28.375Z,99248.97
2023-01-12T20:59:25.653Z,99238.25
2023-01-12T21:02:29.707Z,99244.53
2023-01-12T21:05:24.880Z,99247.91
2023-01-12T21:08:14.959Z,99240.56
2023-01-12T21:10:53.952Z,99243.97
2023-01-12T21:13:48.728Z,99244.81
2023-01-12T21:16:35.957Z,99239.53
2023-01-12T21:19:18.216Z,99244.00
2023-01-12T21:21:46.491Z,99232.59
2023-01-12T21:24:25.945Z,99236.25
2023-01-12T21:27:10.754Z,99238.19
2023-01-12T21:29:49.288Z,99225.25
2023-01-12T21:32:27.660Z,99228.47
2023-01-12T21:34:56.852Z,99228.16
2023-01-12T21:37:24.857Z,99228.72
2023-01-12T21:39:53.655Z,99229.44
2023-01-12T21:42:57.828Z,99229.22
2023-01-12T21:45:50.330Z,99224.63
2023-01-12T21:48:20.501Z,99232.19
2023-01-12T21:51:08.285Z,99229.81
2023-01-12T21:53:45.280Z,99232.75
2023-01-12T21:56:30.731Z,99228.84
2023-01-12T21:59:10.857Z,99229.94
2023-01-12T22:01:38.009Z,99218.09
2023-01-12T22:04:05.302Z,99213.66
2023-01-12T22:06:36.093Z,99216.66
2023-01-12T22:09:03.547Z,99208.69
2023-01-12T22:11:33.182Z,99210.69
2023-01-12T22:14:09.413Z,99211.88
2023-01-12T22:16:37.075Z,99218.44
2023-01-12T22:19:08.128Z,99215.25
2023-01-12T22:21:36.083Z,99215.66
2023-01-12T22:24:04.063Z,99222.84
2023-01-12T22:26:32.912Z,99206.50
2023-01-12T22:29:07.283Z,99205.84
2023-01-12T22:31:50.206Z,99197.81
2023-01-12T22:34:21.539Z,99199.41
2023-01-12T22:36:53.426Z,99192.84
2023-01-12T22:39:23.215Z,99190.13
2023-01-12T22:41:51.222Z,99196.81
2023-01-12T22:44:28.920Z,99200.47
2023-01-12T22:47:03.492Z,99200.44
2023-01-12T22:49:35.590Z,99190.81
2023-01-12T22:52:13.776Z,99200.91
2023-01-12T22:54:43.943Z,99209.34
2023-01-12T22:57:10.696Z,99206.72
2023-01-12T22:59:37.339Z,99202.94
2023-01-12T23:02:24.863Z,99201.53
2023-01-12T23:04:52.813Z,99198.78
2023-01-12T23:07:26.109Z,99199.28
2023-01-12T23:10:00.073Z,99206.59
2023-01-12T23:12:29.897Z,99198.34
2023-01-12T23:15:05.577Z,99198.88
2023-01-12T23:17:36.396Z,99191.38
2023-01-12T23:20:09.313Z,99196.97
2023-01-12T23:22:53.504Z,99188.00
2023-01-12T23:25:29.831Z,99184.25
2023-01-12T23:28:10.321Z,99181.94
2023-01-12T23:30:41.240Z,99175.31
2023-01-12T23:33:25.170Z,99164.41
2023-01-12T23:35:52.330Z,99164.19
2023-01-12T23:38:19.231Z,99163.47
2023-01-12T23:40:46.464Z,99159.63
2023-01-12T23:43:16.582Z,99150.59
2023-01-12T23:45:43.612Z,99155.78
2023-01-12T23:48:10.873Z,99143.31
2023-01-12T23:50:40.543Z,99151.69
2023-01-12T23:53:10.460Z,99145.13
2023-01-12T23:55:39.746Z,99144.22
2023-01-12T23:58:06.735Z,99151.22
